sensor_id;sensor_type;location;lat;lon;timestamp;pressure;altitude;pressure_sealevel;temperature;humidity
13124;BME280;6627;50.920;12.050;2023-07-13T00:02:18;98464.38;;;31.55;31.74
13124;BME280;6627;50.920;12.050;2023-07-13T00:04:47;98467.03;;;31.71;31.44
13124;BME280;6627;50.920;12.050;2023-07-13T00:07:17;98398.78;;;31.05;32.34
13124;BME280;6627;50.920;12.050;2023-07-13T00:09:47;98379.41;;;30.98;31.90
13124;BME280;6627;50.920;12.050;2023-07-13T00:12:30;98456.06;;;31.64;31.17
13124;BME280;6627;50.920;12.050;2023-07-13T00:15:03;98370.56;;;31.12;31.43
13124;BME280;6627;50.920;12.050;2023-07-13T00:17:31;98421.19;;;31.30;31.22
13124;BME280;6627;50.920;12.050;2023-07-13T00:20:10;98476.91;;;31.88;30.90
13124;BME280;6627;50.920;12.050;2023-07-13T00:22:38;98622.03;;;33.23;28.93
13124;BME280;6627;50.920;12.050;2023-07-13T00:25:08;98448.41;;;32.03;30.21
13124;BME280;6627;50.920;12.050;2023-07-13T00:27:38;98467.25;;;31.89;30.91
13124;BME280;6627;50.920;12.050;2023-07-13T00:30:12;98461.47;;;31.46;31.83
13124;BME280;6627;50.920;12.050;2023-07-13T00:32:40;98504.59;;;31.48;32.02
13124;BME280;6627;50.920;12.050;2023-07-13T00:35:08;98426.16;;;30.97;32.47
13124;BME280;6627;50.920;12.050;2023-07-13T00:37:38;98435.09;;;30.79;32.97
13124;BME280;6627;50.920;12.050;2023-07-13T00:40:10;98688.25;;;32.13;32.01
13124;BME280;6627;50.920;12.050;2023-07-13T00:42:46;98541.84;;;31.32;33.01
13124;BME280;6627;50.920;12.050;2023-07-13T00:46:09;98508.56;;;31.22;32.89
13124;BME280;6627;50.920;12.050;2023-07-13T00:48:38;98463.94;;;30.76;33.61
13124;BME280;6627;50.920;12.050;2023-07-13T00:51:08;98408.56;;;30.29;33.99
13124;BME280;6627;50.920;12.050;2023-07-13T00:53:38;98482.94;;;30.69;33.70
13124;BME280;6627;50.920;12.050;2023-07-13T00:56:06;98589.00;;;31.47;33.05
13124;BME280;6627;50.920;12.050;2023-07-13T00:58:37;98540.28;;;31.31;33.05
13124;BME280;6627;50.920;12.050;2023-07-13T01:01:05;98478.66;;;31.06;32.73
13124;BME280;6627;50.920;12.050;2023-07-13T01:03:35;98556.44;;;31.53;32.11
13124;BME280;6627;50.920;12.050;2023-07-13T01:06:05;98574.28;;;31.84;31.45
13124;BME280;6627;50.920;12.050;2023-07-13T01:08:33;98516.78;;;31.67;31.69
13124;BME280;6627;50.920;12.050;2023-07-13T01:11:01;98433.34;;;31.11;31.87
13124;BME280;6627;50.920;12.050;2023-07-13T01:13:37;98682.53;;;32.68;30.63
13124;BME280;6627;50.920;12.050;2023-07-13T01:16:22;98374.03;;;30.90;32.06
13124;BME280;6627;50.920;12.050;2023-07-13T01:19:00;98446.41;;;30.88;32.85
13124;BME280;6627;50.920;12.050;2023-07-13T01:21:35;98474.16;;;30.25;34.79
13124;BME280;6627;50.920;12.050;2023-07-13T01:24:11;98621.72;;;31.08;34.11
13124;BME280;6627;50.920;12.050;2023-07-13T01:26:57;98522.84;;;30.69;34.26
13124;BME280;6627;50.920;12.050;2023-07-13T01:29:26;98629.59;;;31.26;33.50
13124;BME280;6627;50.920;12.050;2023-07-13T01:31:55;98499.72;;;30.69;33.65
13124;BME280;6627;50.920;12.050;2023-07-13T01:34:24;98563.47;;;31.03;33.40
13124;BME280;6627;50.920;12.050;2023-07-13T01:36:56;98550.53;;;31.09;33.04
13124;BME280;6627;50.920;12.050;2023-07-13T01:39:24;98537.69;;;30.82;33.51
13124;BME280;6627;50.920;12.050;2023-07-13T01:41:52;98529.75;;;30.35;34.91
13124;BME280;6627;50.920;12.050;2023-07-13T01:44:36;98653.47;;;30.85;34.93
13124;BME280;6627;50.920;12.050;2023-07-13T01:47:11;98586.31;;;30.56;35.03
13124;BME280;6627;50.920;12.050;2023-07-13T01:49:58;98577.31;;;30.64;34.50
13124;BME280;6627;50.920;12.050;2023-07-13T01:52:46;98667.97;;;31.54;33.21
13124;BME280;6627;50.920;12.050;2023-07-13T01:55:34;98547.38;;;30.49;34.75
13124;BME280;6627;50.920;12.050;2023-07-13T01:58:21;98578.47;;;30.51;35.16
13124;BME280;6627;50.920;12.050;2023-07-13T02:00:51;98622.13;;;30.45;35.51
13124;BME280;6627;50.920;12.050;2023-07-13T02:03:20;98544.78;;;30.09;35.59
13124;BME280;6627;50.920;12.050;2023-07-13T02:05:49;98611.47;;;30.56;35.40
13124;BME280;6627;50.920;12.050;2023-07-13T02:08:18;98507.69;;;29.59;36.32
13124;BME280;6627;50.920;12.050;2023-07-13T02:10:45;98623.66;;;29.97;36.73
13124;BME280;6627;50.920;12.050;2023-07-13T02:13:12;98618.09;;;29.97;36.40
13124;BME280;6627;50.920;12.050;2023-07-13T02:15:39;98649.41;;;30.24;35.74
13124;BME280;6627;50.920;12.050;2023-07-13T02:18:07;98632.22;;;30.06;36.22
13124;BME280;6627;50.920;12.050;2023-07-13T02:20:35;98598.25;;;29.75;36.61
13124;BME280;6627;50.920;12.050;2023-07-13T02:23:02;98583.41;;;29.41;37.24
13124;BME280;6627;50.920;12.050;2023-07-13T02:25:31;98689.69;;;30.07;36.28
13124;BME280;6627;50.920;12.050;2023-07-13T02:27:58;98681.19;;;30.30;35.70
13124;BME280;6627;50.920;12.050;2023-07-13T02:30:25;98705.13;;;30.48;35.49
13124;BME280;6627;50.920;12.050;2023-07-13T02:32:52;98663.78;;;30.23;35.56
13124;BME280;6627;50.920;12.050;2023-07-13T02:35:19;98689.22;;;30.28;35.75
13124;BME280;6627;50.920;12.050;2023-07-13T02:37:46;98622.75;;;29.67;36.40
13124;BME280;6627;50.920;12.050;2023-07-13T02:40:14;98594.28;;;29.56;36.43
13124;BME280;6627;50.920;12.050;2023-07-13T02:42:42;98655.84;;;30.21;35.39
13124;BME280;6627;50.920;12.050;2023-07-13T02:45:10;98633.13;;;30.03;35.49
13124;BME280;6627;50.920;12.050;2023-07-13T02:47:40;98579.66;;;29.68;35.93
13124;BME280;6627;50.920;12.050;2023-07-13T02:50:09;98533.16;;;29.05;36.81
13124;BME280;6627;50.920;12.050;2023-07-13T02:52:36;98676.06;;;30.09;35.72
13124;BME280;6627;50.920;12.050;2023-07-13T02:55:04;98614.31;;;29.51;36.53
13124;BME280;6627;50.920;12.050;2023-07-13T02:57:31;98636.34;;;29.65;36.29
13124;BME280;6627;50.920;12.050;2023-07-13T03:00:00;98627.38;;;29.74;35.98
13124;BME280;6627;50.920;12.050;2023-07-13T03:02:31;98712.97;;;30.36;35.25
13124;BME280;6627;50.920;12.050;2023-07-13T03:04:58;98653.50;;;30.20;35.11
13124;BME280;6627;50.920;12.050;2023-07-13T03:07:25;98671.56;;;30.31;35.15
13124;BME280;6627;50.920;12.050;2023-07-13T03:09:55;98666.81;;;30.12;35.59
13124;BME280;6627;50.920;12.050;2023-07-13T03:12:23;98669.47;;;30.19;35.51
13124;BME280;6627;50.920;12.050;2023-07-13T03:14:50;98565.69;;;29.12;36.75
13124;BME280;6627;50.920;12.050;2023-07-13T03:17:19;98615.69;;;29.03;37.17
13124;BME280;6627;50.920;12.050;2023-07-13T03:19:46;98603.44;;;28.53;38.17
13124;BME280;6627;50.920;12.050;2023-07-13T03:22:15;98630.13;;;28.51;38.43
13124;BME280;6627;50.920;12.050;2023-07-13T03:24:43;98702.50;;;29.05;37.84
13124;BME280;6627;50.920;12.050;2023-07-13T03:27:11;98699.81;;;28.51;39.36
13124;BME280;6627;50.920;12.050;2023-07-13T03:29:38;98717.59;;;28.84;38.24
13124;BME280;6627;50.920;12.050;2023-07-13T03:32:07;98763.56;;;28.72;39.82
13124;BME280;6627;50.920;12.050;2023-07-13T03:34:35;98889.22;;;30.06;37.51
13124;BME280;6627;50.920;12.050;2023-07-13T03:37:03;98788.19;;;29.48;37.76
13124;BME280;6627;50.920;12.050;2023-07-13T03:39:31;98856.31;;;30.17;36.37
13124;BME280;6627;50.920;12.050;2023-07-13T03:41:58;98728.22;;;29.96;35.09
13124;BME280;6627;50.920;12.050;2023-07-13T03:44:25;98687.84;;;30.00;34.71
13124;BME280;6627;50.920;12.050;2023-07-13T03:46:52;98711.28;;;29.86;35.47
13124;BME280;6627;50.920;12.050;2023-07-13T03:49:20;98627.41;;;29.34;35.94
13124;BME280;6627;50.920;12.050;2023-07-13T03:51:48;98790.75;;;30.22;35.64
13124;BME280;6627;50.920;12.050;2023-07-13T03:54:15;98789.31;;;30.50;35.24
13124;BME280;6627;50.920;12.050;2023-07-13T03:56:43;98789.84;;;30.28;36.06
13124;BME280;6627;50.920;12.050;2023-07-13T03:59:10;98704.22;;;30.18;34.74
13124;BME280;6627;50.920;12.050;2023-07-13T04:01:38;98605.63;;;29.09;36.15
13124;BME280;6627;50.920;12.050;2023-07-13T04:04:06;98770.25;;;30.08;35.20
13124;BME280;6627;50.920;12.050;2023-07-13T04:06:34;98642.53;;;29.36;35.80
13124;BME280;6627;50.920;12.050;2023-07-13T04:09:03;98732.84;;;29.66;35.99
13124;BME280;6627;50.920;12.050;2023-07-13T04:11:32;98686.00;;;29.14;37.06
13124;BME280;6627;50.920;12.050;2023-07-13T04:14:00;98789.97;;;29.81;36.07
13124;BME280;6627;50.920;12.050;2023-07-13T04:16:27;98801.16;;;29.81;36.47
13124;BME280;6627;50.920;12.050;2023-07-13T04:18:55;98749.91;;;29.48;37.02
13124;BME280;6627;50.920;12.050;2023-07-13T04:21:26;98736.16;;;29.37;36.69
13124;BME280;6627;50.920;12.050;2023-07-13T04:23:54;98777.91;;;29.45;37.09
13124;BME280;6627;50.920;12.050;2023-07-13T04:26:23;98719.00;;;29.39;36.31
13124;BME280;6627;50.920;12.050;2023-07-13T04:28:51;98758.69;;;29.70;36.17
13124;BME280;6627;50.920;12.050;2023-07-13T04:31:18;98700.56;;;29.02;37.05
13124;BME280;6627;50.920;12.050;2023-07-13T04:33:46;98721.41;;;28.94;37.72
13124;BME280;6627;50.920;12.050;2023-07-13T04:36:15;98752.28;;;29.06;37.80
13124;BME280;6627;50.920;12.050;2023-07-13T04:38:43;98673.19;;;28.97;36.53
13124;BME280;6627;50.920;12.050;2023-07-13T04:41:10;98742.09;;;28.96;37.40
13124;BME280;6627;50.920;12.050;2023-07-13T04:43:39;98745.16;;;28.78;37.96
13124;BME280;6627;50.920;12.050;2023-07-13T04:46:10;98811.63;;;29.54;36.64
13124;BME280;6627;50.920;12.050;2023-07-13T04:48:38;98699.34;;;28.79;37.29
13124;BME280;6627;50.920;12.050;2023-07-13T04:51:05;98853.19;;;29.91;36.20
13124;BME280;6627;50.920;12.050;2023-07-13T04:53:33;98743.34;;;28.91;37.23
13124;BME280;6627;50.920;12.050;2023-07-13T04:56:01;98757.28;;;29.38;36.26
13124;BME280;6627;50.920;12.050;2023-07-13T04:58:29;98816.19;;;29.87;35.73
13124;BME280;6627;50.920;12.050;2023-07-13T05:01:01;98775.88;;;29.88;35.09
13124;BME280;6627;50.920;12.050;2023-07-13T05:03:30;98684.78;;;29.35;35.75
13124;BME280;6627;50.920;12.050;2023-07-13T05:06:00;98696.16;;;29.24;35.82
13124;BME280;6627;50.920;12.050;2023-07-13T05:08:28;98767.06;;;29.70;35.34
13124;BME280;6627;50.920;12.050;2023-07-13T05:10:55;98813.75;;;30.09;35.34
13124;BME280;6627;50.920;12.050;2023-07-13T05:13:22;98832.50;;;30.49;34.31
13124;BME280;6627;50.920;12.050;2023-07-13T05:15:57;98787.53;;;30.59;33.58
13124;BME280;6627;50.920;12.050;2023-07-13T05:18:27;98603.47;;;28.97;35.43
13124;BME280;6627;50.920;12.050;2023-07-13T05:21:00;98733.97;;;29.49;35.79
13124;BME280;6627;50.920;12.050;2023-07-13T05:23:28;98745.69;;;30.00;34.33
13124;BME280;6627;50.920;12.050;2023-07-13T05:25:55;98634.66;;;28.88;36.15
13124;BME280;6627;50.920;12.050;2023-07-13T05:28:24;98770.66;;;29.47;36.20
13124;BME280;6627;50.920;12.050;2023-07-13T05:30:52;98798.63;;;30.07;35.21
13124;BME280;6627;50.920;12.050;2023-07-13T05:33:20;98763.19;;;29.64;35.76
13124;BME280;6627;50.920;12.050;2023-07-13T05:35:49;98709.81;;;29.19;36.35
13124;BME280;6627;50.920;12.050;2023-07-13T05:38:16;98788.47;;;29.77;35.56
13124;BME280;6627;50.920;12.050;2023-07-13T05:40:43;98963.94;;;31.05;33.91
13124;BME280;6627;50.920;12.050;2023-07-13T05:43:11;98744.16;;;30.35;33.94
13124;BME280;6627;50.920;12.050;2023-07-13T05:45:39;98792.84;;;30.70;33.72
13124;BME280;6627;50.920;12.050;2023-07-13T05:48:06;98841.94;;;30.91;33.78
13124;BME280;6627;50.920;12.050;2023-07-13T05:50:33;98642.09;;;29.18;35.21
13124;BME280;6627;50.920;12.050;2023-07-13T05:53:02;98762.75;;;28.99;37.18
13124;BME280;6627;50.920;12.050;2023-07-13T05:55:29;98910.03;;;30.45;35.06
13124;BME280;6627;50.920;12.050;2023-07-13T05:57:57;98708.44;;;29.07;35.72
13124;BME280;6627;50.920;12.050;2023-07-13T06:00:25;98748.91;;;29.62;34.70
13124;BME280;6627;50.920;12.050;2023-07-13T06:02:52;98694.28;;;28.94;35.95
13124;BME280;6627;50.920;12.050;2023-07-13T06:05:19;98818.19;;;29.67;35.39
13124;BME280;6627;50.920;12.050;2023-07-13T06:07:47;98882.94;;;30.61;34.03
13124;BME280;6627;50.920;12.050;2023-07-13T06:10:15;98838.00;;;29.92;35.22
13124;BME280;6627;50.920;12.050;2023-07-13T06:12:42;98759.91;;;29.69;34.85
13124;BME280;6627;50.920;12.050;2023-07-13T06:15:11;98901.63;;;30.84;33.70
13124;BME280;6627;50.920;12.050;2023-07-13T06:17:39;98894.31;;;31.07;33.43
13124;BME280;6627;50.920;12.050;2023-07-13T06:20:07;98839.03;;;30.78;33.44
13124;BME280;6627;50.920;12.050;2023-07-13T06:22:35;98931.28;;;31.67;32.39
13124;BME280;6627;50.920;12.050;2023-07-13T06:25:02;98674.25;;;29.82;33.94
13124;BME280;6627;50.920;12.050;2023-07-13T06:27:31;98794.09;;;31.18;32.31
13124;BME280;6627;50.920;12.050;2023-07-13T06:29:58;98683.38;;;30.55;32.77
13124;BME280;6627;50.920;12.050;2023-07-13T06:32:26;98802.34;;;31.09;32.67
13124;BME280;6627;50.920;12.050;2023-07-13T06:34:53;98614.44;;;29.44;34.33
13124;BME280;6627;50.920;12.050;2023-07-13T06:37:20;98880.50;;;31.16;33.00
13124;BME280;6627;50.920;12.050;2023-07-13T06:39:47;98893.25;;;31.82;31.95
13124;BME280;6627;50.920;12.050;2023-07-13T06:42:16;98716.50;;;30.89;32.50
13124;BME280;6627;50.920;12.050;2023-07-13T06:44:45;98833.31;;;31.80;31.13
13124;BME280;6627;50.920;12.050;2023-07-13T06:47:12;98827.78;;;31.76;31.46
13124;BME280;6627;50.920;12.050;2023-07-13T06:49:39;98848.31;;;31.57;32.13
13124;BME280;6627;50.920;12.050;2023-07-13T06:52:07;98941.00;;;32.24;31.60
13124;BME280;6627;50.920;12.050;2023-07-13T06:54:34;98987.00;;;32.98;30.70
13124;BME280;6627;50.920;12.050;2023-07-13T06:57:01;98876.53;;;33.17;29.42
13124;BME280;6627;50.920;12.050;2023-07-13T06:59:29;98723.59;;;31.81;31.21
13124;BME280;6627;50.920;12.050;2023-07-13T07:01:57;98760.13;;;32.58;29.64
13124;BME280;6627;50.920;12.050;2023-07-13T07:04:24;99129.41;;;34.28;28.80
13124;BME280;6627;50.920;12.050;2023-07-13T07:06:52;98769.78;;;32.57;29.63
13124;BME280;6627;50.920;12.050;2023-07-13T07:09:19;98903.91;;;33.86;28.03
13124;BME280;6627;50.920;12.050;2023-07-13T07:11:46;98851.78;;;34.07;27.41
13124;BME280;6627;50.920;12.050;2023-07-13T07:14:14;98912.97;;;34.03;28.89
13124;BME280;6627;50.920;12.050;2023-07-13T07:16:41;98792.78;;;33.37;28.74
13124;BME280;6627;50.920;12.050;2023-07-13T07:19:09;98776.53;;;33.32;29.15
13124;BME280;6627;50.920;12.050;2023-07-13T07:21:36;98767.78;;;33.65;27.83
13124;BME280;6627;50.920;12.050;2023-07-13T07:24:05;98700.47;;;33.18;28.08
13124;BME280;6627;50.920;12.050;2023-07-13T07:26:32;98505.75;;;32.58;27.06
13124;BME280;6627;50.920;12.050;2023-07-13T07:28:59;98537.41;;;32.46;27.78
13124;BME280;6627;50.920;12.050;2023-07-13T07:31:26;98589.34;;;32.51;28.01
13124;BME280;6627;50.920;12.050;2023-07-13T07:33:54;98691.66;;;32.94;28.11
13124;BME280;6627;50.920;12.050;2023-07-13T07:36:22;98727.22;;;33.66;26.77
13124;BME280;6627;50.920;12.050;2023-07-13T07:38:50;98671.41;;;33.55;26.52
13124;BME280;6627;50.920;12.050;2023-07-13T07:41:17;98687.31;;;34.02;26.48
13124;BME280;6627;50.920;12.050;2023-07-13T07:43:44;98560.63;;;33.87;25.21
13124;BME280;6627;50.920;12.050;2023-07-13T07:46:11;98579.06;;;33.57;26.00
13124;BME280;6627;50.920;12.050;2023-07-13T07:48:38;98644.91;;;33.34;26.95
13124;BME280;6627;50.920;12.050;2023-07-13T07:51:05;98628.84;;;33.57;26.06
13124;BME280;6627;50.920;12.050;2023-07-13T07:53:34;98700.25;;;34.00;26.89
13124;BME280;6627;50.920;12.050;2023-07-13T07:56:01;98555.66;;;33.29;26.28
13124;BME280;6627;50.920;12.050;2023-07-13T07:58:28;98725.50;;;34.53;25.66
13124;BME280;6627;50.920;12.050;2023-07-13T08:01:03;98760.75;;;34.76;25.76
13124;BME280;6627;50.920;12.050;2023-07-13T08:03:31;98647.69;;;34.09;26.15
13124;BME280;6627;50.920;12.050;2023-07-13T08:05:58;98429.91;;;32.93;26.45
13124;BME280;6627;50.920;12.050;2023-07-13T08:08:26;98632.50;;;33.45;27.72
13124;BME280;6627;50.920;12.050;2023-07-13T08:10:54;98744.38;;;33.90;27.76
13124;BME280;6627;50.920;12.050;2023-07-13T08:13:21;98823.66;;;34.51;27.39
13124;BME280;6627;50.920;12.050;2023-07-13T08:15:49;98842.34;;;35.07;25.75
13124;BME280;6627;50.920;12.050;2023-07-13T08:18:16;98531.97;;;33.61;26.10
13124;BME280;6627;50.920;12.050;2023-07-13T08:20:44;98574.22;;;33.58;26.30
13124;BME280;6627;50.920;12.050;2023-07-13T08:23:11;98485.50;;;32.42;27.85
13124;BME280;6627;50.920;12.050;2023-07-13T08:25:39;98592.38;;;32.78;27.67
13124;BME280;6627;50.920;12.050;2023-07-13T08:28:07;98740.13;;;34.07;26.53
13124;BME280;6627;50.920;12.050;2023-07-13T08:30:34;98644.22;;;33.74;26.34
13124;BME280;6627;50.920;12.050;2023-07-13T08:33:02;98613.50;;;33.49;26.74
13124;BME280;6627;50.920;12.050;2023-07-13T08:35:29;98604.66;;;33.37;27.04
13124;BME280;6627;50.920;12.050;2023-07-13T08:37:57;98600.56;;;33.29;26.80
13124;BME280;6627;50.920;12.050;2023-07-13T08:40:27;98499.97;;;31.93;29.05
13124;BME280;6627;50.920;12.050;2023-07-13T08:42:58;98798.44;;;33.94;27.25
13124;BME280;6627;50.920;12.050;2023-07-13T08:45:42;98730.19;;;33.94;26.58
13124;BME280;6627;50.920;12.050;2023-07-13T08:48:17;98721.75;;;33.94;26.58
13124;BME280;6627;50.920;12.050;2023-07-13T08:50:53;98503.19;;;32.04;28.71
13124;BME280;6627;50.920;12.050;2023-07-13T08:53:27;98763.16;;;33.71;27.38
13124;BME280;6627;50.920;12.050;2023-07-13T08:55:59;98838.03;;;34.31;26.98
13124;BME280;6627;50.920;12.050;2023-07-13T08:58:28;98739.44;;;34.25;26.13
13124;BME280;6627;50.920;12.050;2023-07-13T09:01:08;98768.72;;;34.77;25.11
13124;BME280;6627;50.920;12.050;2023-07-13T09:03:49;98678.31;;;34.66;24.91
13124;BME280;6627;50.920;12.050;2023-07-13T09:06:30;98524.38;;;33.80;25.10
13124;BME280;6627;50.920;12.050;2023-07-13T09:09:06;98765.94;;;34.86;25.44
13124;BME280;6627;50.920;12.050;2023-07-13T09:11:47;98813.59;;;35.39;25.11
13124;BME280;6627;50.920;12.050;2023-07-13T09:14:39;98578.72;;;34.27;25.10
13124;BME280;6627;50.920;12.050;2023-07-13T09:17:17;98276.59;;;32.68;25.93
13124;BME280;6627;50.920;12.050;2023-07-13T09:19:49;98417.09;;;32.61;26.76
13124;BME280;6627;50.920;12.050;2023-07-13T09:22:24;98624.91;;;33.85;26.28
13124;BME280;6627;50.920;12.050;2023-07-13T09:24:59;98617.25;;;33.86;25.94
13124;BME280;6627;50.920;12.050;2023-07-13T09:27:35;98485.69;;;33.13;25.78
13124;BME280;6627;50.920;12.050;2023-07-13T09:30:23;98411.28;;;32.77;26.17
13124;BME280;6627;50.920;12.050;2023-07-13T09:32:53;98413.53;;;32.38;26.90
13124;BME280;6627;50.920;12.050;2023-07-13T09:35:25;98573.00;;;33.15;26.83
13124;BME280;6627;50.920;12.050;2023-07-13T09:37:59;98345.91;;;31.80;27.48
13124;BME280;6627;50.920;12.050;2023-07-13T09:40:42;98727.06;;;33.92;26.08
13124;BME280;6627;50.920;12.050;2023-07-13T09:43:14;98644.84;;;33.69;25.98
13124;BME280;6627;50.920;12.050;2023-07-13T09:45:45;98647.72;;;33.56;26.40
13124;BME280;6627;50.920;12.050;2023-07-13T09:48:16;98492.69;;;32.86;26.42
13124;BME280;6627;50.920;12.050;2023-07-13T09:50:44;98652.41;;;33.90;25.88
13124;BME280;6627;50.920;12.050;2023-07-13T09:53:13;98592.63;;;33.59;26.25
13124;BME280;6627;50.920;12.050;2023-07-13T09:55:43;98763.81;;;34.59;25.52
13124;BME280;6627;50.920;12.050;2023-07-13T09:58:14;98580.88;;;33.51;25.86
13124;BME280;6627;50.920;12.050;2023-07-13T10:00:44;98661.41;;;34.07;25.86
13124;BME280;6627;50.920;12.050;2023-07-13T10:03:26;98834.88;;;35.41;24.49
13124;BME280;6627;50.920;12.050;2023-07-13T10:05:54;98798.75;;;35.67;23.85
13124;BME280;6627;50.920;12.050;2023-07-13T10:08:29;98776.72;;;35.56;24.07
13124;BME280;6627;50.920;12.050;2023-07-13T10:11:00;98641.59;;;35.61;22.74
13124;BME280;6627;50.920;12.050;2023-07-13T10:13:33;98454.38;;;34.50;23.71
13124;BME280;6627;50.920;12.050;2023-07-13T10:16:06;98565.91;;;35.18;22.72
13124;BME280;6627;50.920;12.050;2023-07-13T10:18:42;98408.25;;;34.48;22.77
13124;BME280;6627;50.920;12.050;2023-07-13T10:21:15;98278.69;;;33.45;23.43
13124;BME280;6627;50.920;12.050;2023-07-13T10:23:48;98506.88;;;34.62;23.46
13124;BME280;6627;50.920;12.050;2023-07-13T10:26:21;98425.13;;;34.11;24.11
13124;BME280;6627;50.920;12.050;2023-07-13T10:28:55;98411.22;;;34.35;23.05
13124;BME280;6627;50.920;12.050;2023-07-13T10:31:24;98366.38;;;33.95;23.39
13124;BME280;6627;50.920;12.050;2023-07-13T10:33:53;98470.41;;;34.77;22.80
13124;BME280;6627;50.920;12.050;2023-07-13T10:36:33;98735.97;;;36.36;22.24
13124;BME280;6627;50.920;12.050;2023-07-13T10:39:06;98543.00;;;35.43;22.77
13124;BME280;6627;50.920;12.050;2023-07-13T10:41:39;98563.59;;;35.68;22.44
13124;BME280;6627;50.920;12.050;2023-07-13T10:44:19;98302.94;;;34.49;21.89
13124;BME280;6627;50.920;12.050;2023-07-13T10:46:53;98534.06;;;35.45;22.54
13124;BME280;6627;50.920;12.050;2023-07-13T10:49:23;98502.53;;;35.74;21.45
13124;BME280;6627;50.920;12.050;2023-07-13T10:51:51;98143.97;;;33.96;21.52
13124;BME280;6627;50.920;12.050;2023-07-13T10:54:22;98179.84;;;34.34;21.02
13124;BME280;6627;50.920;12.050;2023-07-13T10:57:10;98290.94;;;34.81;20.78
13124;BME280;6627;50.920;12.050;2023-07-13T10:59:46;97970.81;;;33.14;21.86
13124;BME280;6627;50.920;12.050;2023-07-13T11:02:25;98302.81;;;35.43;20.16
13124;BME280;6627;50.920;12.050;2023-07-13T11:04:56;98221.84;;;34.80;20.86
13124;BME280;6627;50.920;12.050;2023-07-13T11:07:27;98277.50;;;35.09;21.35
13124;BME280;6627;50.920;12.050;2023-07-13T11:09:56;98199.03;;;34.78;21.04
13124;BME280;6627;50.920;12.050;2023-07-13T11:12:50;98289.31;;;34.99;21.21
13124;BME280;6627;50.920;12.050;2023-07-13T11:15:32;97952.78;;;32.97;21.98
13124;BME280;6627;50.920;12.050;2023-07-13T11:18:04;97880.56;;;32.27;22.75
13124;BME280;6627;50.920;12.050;2023-07-13T11:20:40;98070.94;;;32.89;22.52
13124;BME280;6627;50.920;12.050;2023-07-13T11:23:20;98350.50;;;34.01;22.04
13124;BME280;6627;50.920;12.050;2023-07-13T11:25:47;98331.06;;;34.58;21.85
13124;BME280;6627;50.920;12.050;2023-07-13T11:28:23;98106.06;;;33.82;21.11
13124;BME280;6627;50.920;12.050;2023-07-13T11:31:12;98293.25;;;34.83;20.80
13124;BME280;6627;50.920;12.050;2023-07-13T11:33:56;98216.91;;;34.66;20.52
13124;BME280;6627;50.920;12.050;2023-07-13T11:36:30;98260.69;;;35.24;20.00
13124;BME280;6627;50.920;12.050;2023-07-13T11:39:04;98457.81;;;36.29;19.40
13124;BME280;6627;50.920;12.050;2023-07-13T11:41:45;98350.97;;;35.93;20.22
13124;BME280;6627;50.920;12.050;2023-07-13T11:44:17;98093.75;;;35.09;19.24
13124;BME280;6627;50.920;12.050;2023-07-13T11:46:47;98100.47;;;34.87;19.23
13124;BME280;6627;50.920;12.050;2023-07-13T11:49:17;98157.22;;;35.49;18.93
13124;BME280;6627;50.920;12.050;2023-07-13T11:51:46;98163.06;;;35.60;18.87
13124;BME280;6627;50.920;12.050;2023-07-13T11:54:28;98140.97;;;35.29;19.50
13124;BME280;6627;50.920;12.050;2023-07-13T11:56:59;98366.31;;;36.60;19.10
13124;BME280;6627;50.920;12.050;2023-07-13T11:59:30;98294.53;;;36.31;19.43
13124;BME280;6627;50.920;12.050;2023-07-13T12:01:59;98071.31;;;35.14;19.22
13124;BME280;6627;50.920;12.050;2023-07-13T12:04:31;98226.84;;;36.02;18.98
13124;BME280;6627;50.920;12.050;2023-07-13T12:07:08;97971.13;;;34.93;19.14
13124;BME280;6627;50.920;12.050;2023-07-13T12:09:41;98093.56;;;35.12;19.32
13124;BME280;6627;50.920;12.050;2023-07-13T12:12:13;98040.19;;;34.79;19.51
13124;BME280;6627;50.920;12.050;2023-07-13T12:14:41;98003.31;;;34.92;18.75
13124;BME280;6627;50.920;12.050;2023-07-13T12:17:16;98298.41;;;36.19;19.13
13124;BME280;6627;50.920;12.050;2023-07-13T12:19:46;97983.44;;;34.96;18.79
13124;BME280;6627;50.920;12.050;2023-07-13T12:22:17;98375.84;;;36.77;18.20
13124;BME280;6627;50.920;12.050;2023-07-13T12:24:47;98157.41;;;36.19;18.49
13124;BME280;6627;50.920;12.050;2023-07-13T12:27:20;98297.00;;;36.88;18.38
13124;BME280;6627;50.920;12.050;2023-07-13T12:29:50;98041.63;;;35.43;18.50
13124;BME280;6627;50.920;12.050;2023-07-13T12:32:19;97929.19;;;34.95;18.72
13124;BME280;6627;50.920;12.050;2023-07-13T12:34:55;98068.03;;;35.75;18.38
13124;BME280;6627;50.920;12.050;2023-07-13T12:37:24;98268.44;;;36.66;18.40
13124;BME280;6627;50.920;12.050;2023-07-13T12:39:52;98035.22;;;35.57;18.71
13124;BME280;6627;50.920;12.050;2023-07-13T12:42:23;97940.81;;;34.88;19.09
13124;BME280;6627;50.920;12.050;2023-07-13T12:44:56;98020.44;;;35.18;18.64
13124;BME280;6627;50.920;12.050;2023-07-13T12:47:24;98101.00;;;35.69;18.53
13124;BME280;6627;50.920;12.050;2023-07-13T12:49:56;97855.53;;;34.37;19.06
13124;BME280;6627;50.920;12.050;2023-07-13T12:52:34;98047.81;;;35.32;18.71
13124;BME280;6627;50.920;12.050;2023-07-13T12:55:07;98006.97;;;35.22;18.28
13124;BME280;6627;50.920;12.050;2023-07-13T12:57:49;98153.16;;;35.79;18.44
13124;BME280;6627;50.920;12.050;2023-07-13T13:00:25;97979.28;;;35.06;19.03
13124;BME280;6627;50.920;12.050;2023-07-13T13:02:56;98177.34;;;35.71;19.25
13124;BME280;6627;50.920;12.050;2023-07-13T13:05:27;98092.38;;;35.19;19.55
13124;BME280;6627;50.920;12.050;2023-07-13T13:07:56;97976.53;;;34.67;19.38
13124;BME280;6627;50.920;12.050;2023-07-13T13:10:23;98153.03;;;35.59;19.06
13124;BME280;6627;50.920;12.050;2023-07-13T13:12:50;98023.38;;;35.09;19.27
13124;BME280;6627;50.920;12.050;2023-07-13T13:15:18;98256.38;;;36.21;18.93
13124;BME280;6627;50.920;12.050;2023-07-13T13:17:48;98084.19;;;35.60;18.43
13124;BME280;6627;50.920;12.050;2023-07-13T13:20:18;98091.53;;;35.43;18.37